createdAt,value
2023-04-02T00:02:32.087Z,8.60
2023-04-02T00:05:19.456Z,8.60
2023-04-02T00:07:52.880Z,8.60
2023-04-02T00:10:47.714Z,8.70
2023-04-02T00:13:22.271Z,8.60
2023-04-02T00:15:51.720Z,8.70
2023-04-02T00:18:20.172Z,8.70
2023-04-02T00:21:09.049Z,8.50
2023-04-02T00:23:44.133Z,8.50
2023-04-02T00:26:23.394Z,8.50
2023-04-02T00:28:51.839Z,8.40
2023-04-02T00:31:20.385Z,8.40
2023-04-02T00:33:48.259Z,8.50
2023-04-02T00:36:15.928Z,8.40
2023-04-02T00:38:44.288Z,8.50
2023-04-02T00:41:17.122Z,8.60
2023-04-02T00:43:46.905Z,8.70
2023-04-02T00:46:22.141Z,8.70
2023-04-02T00:49:10.685Z,8.50
2023-04-02T00:51:44.764Z,8.40
2023-04-02T00:54:16.321Z,8.30
2023-04-02T00:56:46.239Z,8.10
2023-04-02T00:59:26.064Z,8.10
2023-04-02T01:02:01.795Z,8.10
2023-04-02T01:04:34.194Z,8.10
2023-04-02T01:07:07.575Z,8.20
2023-04-02T01:09:48.425Z,8.00
2023-04-02T01:12:44.880Z,7.90
2023-04-02T01:15:30.413Z,8.10
2023-04-02T01:18:14.056Z,8.00
2023-04-02T01:21:06.560Z,7.90
2023-04-02T01:24:07.479Z,7.80
2023-04-02T01:26:53.579Z,7.70
2023-04-02T01:29:22.053Z,7.70
2023-04-02T01:31:51.626Z,7.70
2023-04-02T01:34:21.929Z,7.90
2023-04-02T01:37:04.199Z,7.90
2023-04-02T01:39:37.145Z,7.90
2023-04-02T01:42:25.921Z,7.80
2023-04-02T01:45:12.661Z,7.70
2023-04-02T01:47:40.614Z,7.70
2023-04-02T01:50:31.641Z,7.70
2023-04-02T01:53:03.542Z,7.50
2023-04-02T01:55:50.792Z,7.60
2023-04-02T01:58:27.527Z,7.50
2023-04-02T02:01:15.072Z,7.50
2023-04-02T02:03:44.146Z,7.50
2023-04-02T02:06:16.656Z,7.60
2023-04-02T02:08:58.370Z,7.50
2023-04-02T02:11:29.721Z,7.50
2023-04-02T02:14:12.821Z,7.50
2023-04-02T02:16:41.999Z,7.30
2023-04-02T02:19:21.804Z,7.30
2023-04-02T02:22:12.097Z,7.20
2023-04-02T02:24:39.379Z,7.10
2023-04-02T02:27:24.074Z,7.10
2023-04-02T02:30:11.487Z,7.00
2023-04-02T02:32:47.242Z,6.90
2023-04-02T02:35:27.176Z,6.90
2023-04-02T02:38:20.150Z,6.90
2023-04-02T02:40:52.754Z,6.70
2023-04-02T02:43:20.497Z,6.80
2023-04-02T02:45:48.541Z,6.80
2023-04-02T02:48:19.297Z,6.90
2023-04-02T02:50:46.441Z,6.90
2023-04-02T02:53:27.244Z,6.90
2023-04-02T02:56:00.332Z,7.00
2023-04-02T02:58:31.935Z,7.00
2023-04-02T03:00:59.565Z,7.00
2023-04-02T03:03:29.016Z,7.10
2023-04-02T03:05:57.685Z,7.10
2023-04-02T03:08:40.335Z,7.10
2023-04-02T03:11:19.719Z,7.00
2023-04-02T03:13:50.843Z,6.90
2023-04-02T03:16:40.502Z,6.80
2023-04-02T03:19:16.569Z,6.60
2023-04-02T03:22:17.708Z,6.70
2023-04-02T03:24:47.322Z,6.50
2023-04-02T03:27:31.979Z,6.50
2023-04-02T03:30:27.828Z,6.60
2023-04-02T03:33:03.423Z,6.60
2023-04-02T03:35:45.611Z,6.70
2023-04-02T03:38:12.921Z,6.70
2023-04-02T03:40:43.834Z,6.70
2023-04-02T03:43:21.964Z,6.50
2023-04-02T03:46:09.642Z,6.50
2023-04-02T03:48:50.993Z,6.50
2023-04-02T03:51:30.512Z,6.50
2023-04-02T03:53:57.434Z,6.40
2023-04-02T03:56:29.366Z,6.30
2023-04-02T03:59:12.966Z,6.30
2023-04-02T04:01:53.478Z,6.30
2023-04-02T04:04:21.385Z,6.20
2023-04-02T04:06:52.435Z,6.40
2023-04-02T04:09:35.146Z,6.30
2023-04-02T04:12:19.931Z,6.40
2023-04-02T04:15:10.766Z,6.50
2023-04-02T04:18:01.994Z,6.40
2023-04-02T04:20:40.618Z,6.40
2023-04-02T04:23:30.024Z,6.40
2023-04-02T04:25:59.315Z,6.40
2023-04-02T04:28:38.397Z,6.30
2023-04-02T04:31:18.367Z,6.40
2023-04-02T04:33:50.576Z,6.40
2023-04-02T04:36:30.783Z,6.50
2023-04-02T04:39:04.355Z,6.60
2023-04-02T04:41:35.389Z,6.70
2023-04-02T04:44:24.610Z,6.60
2023-04-02T04:47:01.308Z,6.30
2023-04-02T04:49:34.426Z,6.40
2023-04-02T04:52:26.386Z,6.40
2023-04-02T04:54:53.295Z,6.20
2023-04-02T04:57:30.551Z,6.20
2023-04-02T05:00:28.820Z,6.20
2023-04-02T05:03:13.476Z,6.10
2023-04-02T05:05:41.116Z,6.30
2023-04-02T05:08:27.931Z,6.20
2023-04-02T05:11:03.573Z,6.30
2023-04-02T05:13:42.222Z,6.30
2023-04-02T05:16:23.482Z,6.20
2023-04-02T05:18:59.227Z,6.10
2023-04-02T05:22:13.450Z,6.10
2023-04-02T05:24:55.565Z,6.10
2023-04-02T05:27:38.317Z,6.20
2023-04-02T05:30:08.846Z,6.30
2023-04-02T05:32:41.329Z,6.30
2023-04-02T05:35:16.679Z,6.30
2023-04-02T05:37:44.461Z,6.30
2023-04-02T05:40:23.219Z,6.10
2023-04-02T05:42:52.944Z,6.00
2023-04-02T05:45:27.057Z,6.10
2023-04-02T05:48:02.099Z,6.00
2023-04-02T05:50:37.080Z,6.10
2023-04-02T05:53:26.866Z,6.30
2023-04-02T05:56:02.926Z,6.40
2023-04-02T05:58:45.693Z,6.50
2023-04-02T06:01:49.669Z,6.40
2023-04-02T06:04:56.621Z,6.30
2023-04-02T06:07:45.057Z,6.30
2023-04-02T06:10:24.630Z,6.30
2023-04-02T06:13:00.317Z,6.30
2023-04-02T06:15:27.130Z,6.30
2023-04-02T06:18:01.691Z,6.40
2023-04-02T06:20:28.758Z,6.10
2023-04-02T06:23:31.188Z,6.30
2023-04-02T06:26:28.027Z,6.40
2023-04-02T06:29:04.929Z,6.50
2023-04-02T06:31:49.897Z,6.40
2023-04-02T06:34:20.362Z,6.40
2023-04-02T06:36:48.578Z,6.40
2023-04-02T06:39:23.050Z,6.50
2023-04-02T06:42:25.486Z,6.60
2023-04-02T06:44:52.656Z,6.50
2023-04-02T06:47:37.537Z,6.60
2023-04-02T06:50:16.815Z,6.50
2023-04-02T06:52:51.693Z,6.40
2023-04-02T06:55:42.068Z,6.30
2023-04-02T06:58:09.902Z,6.50
2023-04-02T07:00:38.336Z,6.60
2023-04-02T07:03:15.892Z,6.70
2023-04-02T07:05:43.165Z,6.90
2023-04-02T07:08:10.118Z,6.90
2023-04-02T07:10:37.210Z,7.00
2023-04-02T07:13:05.681Z,6.90
2023-04-02T07:15:32.944Z,6.80
2023-04-02T07:18:00.386Z,6.80
2023-04-02T07:20:37.635Z,6.90
2023-04-02T07:23:04.580Z,6.90
2023-04-02T07:25:31.396Z,6.80
2023-04-02T07:27:58.236Z,6.80
2023-04-02T07:30:25.075Z,6.80
2023-04-02T07:32:52.038Z,6.70
2023-04-02T07:35:18.924Z,6.70
2023-04-02T07:37:45.921Z,6.70
2023-04-02T07:40:18.358Z,6.70
2023-04-02T07:42:45.812Z,6.80
2023-04-02T07:45:13.540Z,6.90
2023-04-02T07:47:40.731Z,6.90
2023-04-02T07:50:08.705Z,6.70
2023-04-02T07:52:42.100Z,6.70
2023-04-02T07:55:12.566Z,6.70
2023-04-02T07:57:59.886Z,6.70
2023-04-02T08:00:28.719Z,6.90
2023-04-02T08:02:56.207Z,6.90
2023-04-02T08:05:23.435Z,6.80
2023-04-02T08:07:57.142Z,6.80
2023-04-02T08:10:24.800Z,6.90
2023-04-02T08:12:51.821Z,6.80
2023-04-02T08:15:19.374Z,7.00
2023-04-02T08:17:47.919Z,7.20
2023-04-02T08:20:18.126Z,7.40
2023-04-02T08:22:48.955Z,7.70
2023-04-02T08:25:16.767Z,7.70
2023-04-02T08:27:47.127Z,7.80
2023-04-02T08:30:14.819Z,7.80
2023-04-02T08:32:41.713Z,7.70
2023-04-02T08:35:11.219Z,7.70
2023-04-02T08:37:38.314Z,7.80
2023-04-02T08:40:10.106Z,8.00
2023-04-02T08:43:02.831Z,8.00
2023-04-02T08:45:32.635Z,8.10
2023-04-02T08:48:03.280Z,8.00
2023-04-02T08:50:39.959Z,8.00
2023-04-02T08:53:22.945Z,8.20
2023-04-02T08:56:06.005Z,8.40
2023-04-02T08:58:44.221Z,8.40
2023-04-02T09:01:25.716Z,8.50
2023-04-02T09:03:56.809Z,8.50
2023-04-02T09:06:24.516Z,8.40
2023-04-02T09:08:53.318Z,8.40
2023-04-02T09:11:39.862Z,8.20
2023-04-02T09:14:15.968Z,8.10
2023-04-02T09:16:56.787Z,8.10
2023-04-02T09:19:40.266Z,8.20
2023-04-02T09:22:28.142Z,8.20
2023-04-02T09:24:57.686Z,8.10
2023-04-02T09:27:25.981Z,8.10
2023-04-02T09:30:17.422Z,8.10
2023-04-02T09:32:53.230Z,8.20
2023-04-02T09:35:26.894Z,8.30
2023-04-02T09:38:18.563Z,8.30
2023-04-02T09:40:58.815Z,8.40
2023-04-02T09:43:28.774Z,8.40
2023-04-02T09:46:22.898Z,8.40
2023-04-02T09:48:58.571Z,8.40
2023-04-02T09:51:31.884Z,8.60
2023-04-02T09:54:04.891Z,8.60
2023-04-02T09:56:37.033Z,8.70
2023-04-02T09:59:13.226Z,8.80
2023-04-02T10:01:57.571Z,8.80
2023-04-02T10:04:45.002Z,8.80
2023-04-02T10:07:36.923Z,8.90
2023-04-02T10:10:26.399Z,8.90
2023-04-02T10:13:18.799Z,8.80
2023-04-02T10:15:52.756Z,8.80
2023-04-02T10:18:23.588Z,8.90
2023-04-02T10:20:53.306Z,9.00
2023-04-02T10:23:24.505Z,9.00
2023-04-02T10:26:14.598Z,9.00
2023-04-02T10:29:03.511Z,9.00
2023-04-02T10:32:11.697Z,8.90
2023-04-02T10:35:08.745Z,8.80
2023-04-02T10:37:48.940Z,8.80
2023-04-02T10:40:39.948Z,8.90
2023-04-02T10:43:44.931Z,9.00
2023-04-02T10:46:28.032Z,9.20
2023-04-02T10:49:13.213Z,9.60
2023-04-02T10:51:55.558Z,9.80
2023-04-02T10:54:53.537Z,9.90
2023-04-02T10:57:32.812Z,10.20
2023-04-02T11:00:13.045Z,10.40
2023-04-02T11:03:00.334Z,10.70
2023-04-02T11:05:44.489Z,10.90
2023-04-02T11:08:20.136Z,10.90
2023-04-02T11:11:13.414Z,11.10
2023-04-02T11:14:00.919Z,11.00
2023-04-02T11:16:28.605Z,11.10
2023-04-02T11:19:16.574Z,11.40
2023-04-02T11:21:57.918Z,11.60
2023-04-02T11:24:34.049Z,11.90
2023-04-02T11:27:03.847Z,11.90
2023-04-02T11:29:32.689Z,12.00
2023-04-02T11:32:31.279Z,12.40
2023-04-02T11:35:07.038Z,12.60
2023-04-02T11:37:34.747Z,12.80
2023-04-02T11:40:06.022Z,13.00
2023-04-02T11:42:33.928Z,13.00
2023-04-02T11:45:23.713Z,13.00
2023-04-02T11:48:00.047Z,13.40
2023-04-02T11:50:31.606Z,13.80
2023-04-02T11:53:03.834Z,14.10
2023-04-02T11:55:33.463Z,14.40
2023-04-02T11:58:39.559Z,14.70
2023-04-02T12:01:09.139Z,14.70
2023-04-02T12:03:41.989Z,14.50
2023-04-02T12:06:46.818Z,14.20
2023-04-02T12:09:27.187Z,14.40
2023-04-02T12:11:58.454Z,15.00
2023-04-02T12:14:43.447Z,15.60
2023-04-02T12:17:38.270Z,15.70
2023-04-02T12:20:09.629Z,15.40
2023-04-02T12:22:40.954Z,14.80
2023-04-02T12:25:31.460Z,14.70
2023-04-02T12:28:20.764Z,14.90
2023-04-02T12:30:49.739Z,15.30
2023-04-02T12:33:21.034Z,15.60
2023-04-02T12:35:52.948Z,16.00
2023-04-02T12:38:53.259Z,16.40
2023-04-02T12:41:33.538Z,16.50
2023-04-02T12:44:22.015Z,16.70
2023-04-02T12:46:49.799Z,17.10
2023-04-02T12:49:35.319Z,17.30
2023-04-02T12:52:07.559Z,16.80
2023-04-02T12:54:47.211Z,17.00
2023-04-02T12:57:30.336Z,17.30
2023-04-02T13:00:06.439Z,17.20
2023-04-02T13:02:44.873Z,17.20
2023-04-02T13:05:12.390Z,17.30
2023-04-02T13:07:41.966Z,17.50
2023-04-02T13:10:27.438Z,17.60
2023-04-02T13:13:03.241Z,18.00
2023-04-02T13:15:33.033Z,18.30
2023-04-02T13:18:14.218Z,18.10
2023-04-02T13:20:42.890Z,18.00
2023-04-02T13:23:33.160Z,18.20
2023-04-02T13:26:16.402Z,18.40
2023-04-02T13:29:04.103Z,18.30
2023-04-02T13:31:33.662Z,18.50
2023-04-02T13:34:01.554Z,18.90
2023-04-02T13:36:29.532Z,19.00
2023-04-02T13:38:57.053Z,18.60
2023-04-02T13:41:28.001Z,18.10
2023-04-02T13:43:57.353Z,18.40
2023-04-02T13:46:27.020Z,19.10
2023-04-02T13:48:55.832Z,19.20
2023-04-02T13:51:27.145Z,19.10
2023-04-02T13:53:57.764Z,19.60
2023-04-02T13:56:25.014Z,20.00
2023-04-02T13:58:52.772Z,19.80
2023-04-02T14:01:22.911Z,19.50
2023-04-02T14:03:51.120Z,19.50
2023-04-02T14:06:41.028Z,20.00
2023-04-02T14:09:10.735Z,20.80
2023-04-02T14:12:04.039Z,20.80
2023-04-02T14:15:15.054Z,20.10
2023-04-02T14:17:51.148Z,19.50
2023-04-02T14:20:33.307Z,19.70
2023-04-02T14:23:15.358Z,19.30
2023-04-02T14:26:06.865Z,18.30
2023-04-02T14:28:45.113Z,17.90
2023-04-02T14:31:28.838Z,17.70
2023-04-02T14:34:14.887Z,17.50
2023-04-02T14:36:51.925Z,18.30
2023-04-02T14:39:28.553Z,19.40
2023-04-02T14:42:00.854Z,19.90
2023-04-02T14:44:34.290Z,19.10
2023-04-02T14:47:15.679Z,18.00
2023-04-02T14:49:45.840Z,17.20
2023-04-02T14:52:18.560Z,16.60
2023-04-02T14:55:02.480Z,17.10
2023-04-02T14:57:51.291Z,18.10
2023-04-02T15:00:41.800Z,19.00
2023-04-02T15:03:16.387Z,20.00
2023-04-02T15:05:50.449Z,20.40
2023-04-02T15:08:48.280Z,20.50
2023-04-02T15:11:42.427Z,20.60
2023-04-02T15:14:17.642Z,20.80
2023-04-02T15:16:47.407Z,20.90
2023-04-02T15:19:17.043Z,20.70
2023-04-02T15:22:10.624Z,20.30
2023-04-02T15:24:58.711Z,19.70
2023-04-02T15:27:28.477Z,18.80
2023-04-02T15:30:30.174Z,19.10
2023-04-02T15:33:19.809Z,19.30
2023-04-02T15:35:56.141Z,19.80
2023-04-02T15:38:52.219Z,20.20
2023-04-02T15:41:23.600Z,20.60
2023-04-02T15:44:03.555Z,21.20
2023-04-02T15:46:46.720Z,21.40
2023-04-02T15:49:46.662Z,21.60
2023-04-02T15:52:36.990Z,21.90
2023-04-02T15:55:22.926Z,22.00
2023-04-02T15:58:17.958Z,22.00
2023-04-02T16:01:23.272Z,22.20
2023-04-02T16:04:19.770Z,22.20
2023-04-02T16:06:53.354Z,21.90
2023-04-02T16:10:02.023Z,21.90
2023-04-02T16:12:30.832Z,21.90
2023-04-02T16:15:16.514Z,22.20
2023-04-02T16:17:48.643Z,22.20
2023-04-02T16:20:24.699Z,22.20
2023-04-02T16:23:05.593Z,21.60
2023-04-02T16:25:56.342Z,21.10
2023-04-02T16:28:41.898Z,21.00
2023-04-02T16:31:34.618Z,21.50
2023-04-02T16:34:14.160Z,21.90
2023-04-02T16:36:48.814Z,22.10
2023-04-02T16:39:25.787Z,22.30
2023-04-02T16:42:26.887Z,22.30
2023-04-02T16:45:00.997Z,22.20
2023-04-02T16:47:55.885Z,21.50
2023-04-02T16:51:21.529Z,19.90
2023-04-02T16:54:08.908Z,18.50
2023-04-02T16:56:44.074Z,18.00
2023-04-02T16:59:23.356Z,18.30
2023-04-02T17:02:11.888Z,18.60
2023-04-02T17:05:02.626Z,18.80
2023-04-02T17:07:49.562Z,18.80
2023-04-02T17:10:40.963Z,18.20
2023-04-02T17:13:20.635Z,17.20
2023-04-02T17:16:01.750Z,16.30
2023-04-02T17:18:29.069Z,15.70
2023-04-02T17:21:00.696Z,15.20
2023-04-02T17:23:28.187Z,14.80
2023-04-02T17:26:00.668Z,14.40
2023-04-02T17:28:36.751Z,14.30
2023-04-02T17:31:22.575Z,14.10
2023-04-02T17:33:49.755Z,13.80
2023-04-02T17:36:32.707Z,13.70
2023-04-02T17:39:39.323Z,13.60
2023-04-02T17:42:10.384Z,13.50
2023-04-02T17:44:57.240Z,13.50
2023-04-02T17:47:30.399Z,13.30
2023-04-02T17:49:57.259Z,13.20
2023-04-02T17:52:47.743Z,13.00
2023-04-02T17:55:42.123Z,13.00
2023-04-02T17:58:49.903Z,13.00
2023-04-02T18:01:46.870Z,12.90
2023-04-02T18:04:33.944Z,12.80
2023-04-02T18:07:24.868Z,12.80
2023-04-02T18:10:13.497Z,12.70
2023-04-02T18:12:46.491Z,12.60
2023-04-02T18:15:39.907Z,12.50
2023-04-02T18:18:30.752Z,12.50
2023-04-02T18:21:30.943Z,12.40
2023-04-02T18:24:19.455Z,12.40
2023-04-02T18:26:58.668Z,12.40
2023-04-02T18:29:25.563Z,12.30
2023-04-02T18:32:23.735Z,12.20
2023-04-02T18:35:14.801Z,12.10
2023-04-02T18:38:11.144Z,12.00
2023-04-02T18:40:58.332Z,11.90
2023-04-02T18:43:33.362Z,11.90
2023-04-02T18:46:11.816Z,11.80
2023-04-02T18:48:56.877Z,11.70
2023-04-02T18:51:31.316Z,11.50
2023-04-02T18:54:13.486Z,11.50
2023-04-02T18:56:41.531Z,11.40
2023-04-02T18:59:33.644Z,11.30
2023-04-02T19:02:27.609Z,11.30
2023-04-02T19:05:22.001Z,11.20
2023-04-02T19:07:52.510Z,11.20
2023-04-02T19:10:35.291Z,11.10
2023-04-02T19:13:02.279Z,11.00
2023-04-02T19:15:49.534Z,11.00
2023-04-02T19:18:49.072Z,10.90
2023-04-02T19:21:51.583Z,10.90
2023-04-02T19:24:21.517Z,10.80
2023-04-02T19:26:52.355Z,10.80
2023-04-02T19:29:56.807Z,10.70
2023-04-02T19:32:40.413Z,10.70
2023-04-02T19:35:53.976Z,10.70
2023-04-02T19:38:53.249Z,10.60
2023-04-02T19:41:48.348Z,10.50
2023-04-02T19:44:16.833Z,10.30
2023-04-02T19:46:44.146Z,10.30
2023-04-02T19:49:22.894Z,10.20
2023-04-02T19:51:50.792Z,10.20
2023-04-02T19:54:18.477Z,10.10
2023-04-02T19:56:46.049Z,10.10
2023-04-02T20:01:42.849Z,10.00
2023-04-02T20:04:09.819Z,10.00
2023-04-02T20:06:37.561Z,9.80
2023-04-02T20:09:04.471Z,9.80
2023-04-02T20:11:31.465Z,9.40
2023-04-02T20:13:58.381Z,9.40
2023-04-02T20:16:25.353Z,9.50
2023-04-02T20:18:52.861Z,9.50
2023-04-02T20:21:19.937Z,9.50
2023-04-02T20:23:46.862Z,9.50
2023-04-02T20:26:13.839Z,9.50
2023-04-02T20:28:40.684Z,9.40
2023-04-02T20:31:17.162Z,9.40
2023-04-02T20:33:44.469Z,9.40
2023-04-02T20:36:17.375Z,9.40
2023-04-02T20:38:45.616Z,9.40
2023-04-02T20:41:15.626Z,9.30
2023-04-02T20:43:42.779Z,9.30
2023-04-02T20:46:12.256Z,9.20
2023-04-02T20:48:39.815Z,9.10
2023-04-02T20:51:08.704Z,9.10
2023-04-02T20:53:37.231Z,9.10
2023-04-02T20:56:10.358Z,9.10
2023-04-02T20:58:38.322Z,9.00
2023-04-02T21:01:27.129Z,9.00
2023-04-02T21:03:58.258Z,8.90
2023-04-02T21:06:27.561Z,8.90
2023-04-02T21:08:54.376Z,8.90
2023-04-02T21:11:22.420Z,8.90
2023-04-02T21:13:50.161Z,8.90
2023-04-02T21:16:19.938Z,8.80
2023-04-02T21:18:48.733Z,8.80
2023-04-02T21:21:16.030Z,8.70
2023-04-02T21:23:44.528Z,8.70
2023-04-02T21:26:14.778Z,8.60
2023-04-02T21:28:42.617Z,8.50
2023-04-02T21:31:17.078Z,8.40
2023-04-02T21:33:46.872Z,8.40
2023-04-02T21:36:22.399Z,8.30
2023-04-02T21:38:58.188Z,8.20
2023-04-02T21:41:36.754Z,8.20
2023-04-02T21:44:05.552Z,8.10
2023-04-02T21:46:37.322Z,8.10
2023-04-02T21:49:07.865Z,8.10
2023-04-02T21:51:36.477Z,7.90
2023-04-02T21:54:03.903Z,7.80
2023-04-02T21:56:36.472Z,7.90
2023-04-02T21:59:05.387Z,7.80
2023-04-02T22:01:35.449Z,7.90
2023-04-02T22:04:04.243Z,7.80
2023-04-02T22:06:35.849Z,7.90
2023-04-02T22:09:06.409Z,7.80
2023-04-02T22:11:36.217Z,7.80
2023-04-02T22:14:03.798Z,7.70
2023-04-02T22:16:32.616Z,7.60
2023-04-02T22:19:01.881Z,7.60
2023-04-02T22:21:29.945Z,7.70
2023-04-02T22:23:59.020Z,7.60
2023-04-02T22:26:27.420Z,7.40
2023-04-02T22:28:54.715Z,7.40
2023-04-02T22:31:24.332Z,7.40
2023-04-02T22:33:52.641Z,7.40
2023-04-02T22:36:20.367Z,7.40
2023-04-02T22:38:47.257Z,7.30
2023-04-02T22:41:21.486Z,7.20
2023-04-02T22:43:48.652Z,7.20
2023-04-02T22:46:17.901Z,7.30
2023-04-02T22:48:45.719Z,7.40
2023-04-02T22:51:15.626Z,7.40
2023-04-02T22:53:43.094Z,7.40
2023-04-02T22:56:22.108Z,7.30
2023-04-02T22:58:49.687Z,7.30
2023-04-02T23:01:26.120Z,7.20
2023-04-02T23:03:54.810Z,7.10
2023-04-02T23:06:23.002Z,7.10
2023-04-02T23:08:49.946Z,7.10
2023-04-02T23:11:20.015Z,7.00
2023-04-02T23:13:48.621Z,7.10
2023-04-02T23:16:16.283Z,7.10
2023-04-02T23:18:46.217Z,7.00
2023-04-02T23:21:13.133Z,7.00
2023-04-02T23:23:40.087Z,7.00
2023-04-02T23:26:13.429Z,7.00
2023-04-02T23:28:40.917Z,6.90
2023-04-02T23:31:11.787Z,7.00
2023-04-02T23:33:38.941Z,7.00
2023-04-02T23:36:27.834Z,7.00
2023-04-02T23:38:57.197Z,7.00
2023-04-02T23:41:26.787Z,7.10
2023-04-02T23:43:55.334Z,7.10
2023-04-02T23:46:23.131Z,7.10
2023-04-02T23:48:50.869Z,7.20
2023-04-02T23:51:17.984Z,7.30
2023-04-02T23:53:44.822Z,7.20
2023-04-02T23:56:12.028Z,7.10
2023-04-02T23:58:39.101Z,7.10
